Time;durP1;ratioP1;P1;durP2;ratioP2;P2;SDS_P1;SDS_P2;PMS_P1;PMS_P2;Temp;Humidity;BMP_temperature;BMP_pressure;BME280_temperature;BME280_humidity;BME280_pressure;Samples;Min_cycle;Max_cycle;Signal;HPM_P1;HPM_P2
2021/12/30 00:02:00;;;;;;;15.48;8.95;;;;;;;;;;21079837;28;20435;-65
2021/12/30 00:12:02;;;;;;;14.77;8.70;;;;;;;;;;21078969;28;20044;-65
2021/12/30 00:22:05;;;;;;;16.20;10.13;;;;;;;;;;21078812;28;20554;-62
2021/12/30 00:32:07;;;;;;;13.18;9.50;;;;;;;;;;21078368;28;20123;-63
2021/12/30 00:42:09;;;;;;;16.80;9.82;;;;;;;;;;21082747;28;20131;-63
2021/12/30 00:52:11;;;;;;;16.85;10.35;;;;;;;;;;21094359;28;20048;-63
2021/12/30 01:02:13;;;;;;;19.38;10.93;;;;;;;;;;21093386;28;20134;-61
2021/12/30 01:12:15;;;;;;;19.02;11.27;;;;;;;;;;21092816;28;20048;-63
2021/12/30 01:22:19;;;;;;;14.85;10.35;;;;;;;;;;21091827;28;20055;-63
2021/12/30 01:32:23;;;;;;;20.88;11.05;;;;;;;;;;21090724;28;20409;-64
2021/12/30 01:42:25;;;;;;;14.48;10.13;;;;;;;;;;21090192;28;20082;-62
2021/12/30 01:52:27;;;;;;;17.75;9.80;;;;;;;;;;21088912;28;20048;-64
2021/12/30 02:02:29;;;;;;;16.52;10.65;;;;;;;;;;21088852;28;20402;-62
2021/12/30 02:12:32;;;;;;;15.82;10.38;;;;;;;;;;21088237;28;20079;-60
2021/12/30 02:22:35;;;;;;;16.23;9.30;;;;;;;;;;21087376;28;20055;-63
2021/12/30 02:32:37;;;;;;;14.18;9.55;;;;;;;;;;21086174;28;20047;-61
2021/12/30 02:42:41;;;;;;;14.23;9.68;;;;;;;;;;21085432;28;20055;-63
2021/12/30 02:52:45;;;;;;;15.77;9.10;;;;;;;;;;21084670;28;20537;-63
2021/12/30 03:02:48;;;;;;;15.13;9.38;;;;;;;;;;21082525;28;20052;-64
2021/12/30 03:12:55;;;;;;;15.02;9.38;;;;;;;;;;21083080;28;20052;-63
2021/12/30 03:23:01;;;;;;;15.02;8.63;;;;;;;;;;21082686;28;20043;-65
2021/12/30 03:33:04;;;;;;;18.15;9.57;;;;;;;;;;21081556;28;20044;-62
2021/12/30 03:43:08;;;;;;;17.25;9.60;;;;;;;;;;21081096;28;20132;-64
2021/12/30 03:53:14;;;;;;;16.67;10.52;;;;;;;;;;21080118;28;20083;-64
2021/12/30 04:03:17;;;;;;;17.05;9.95;;;;;;;;;;21079286;28;20047;-61
2021/12/30 04:13:20;;;;;;;14.70;10.25;;;;;;;;;;21078925;28;20051;-62
2021/12/30 04:23:26;;;;;;;12.20;9.45;;;;;;;;;;21078527;28;20542;-63
2021/12/30 04:33:47;;;;;;;13.95;9.63;;;;;;;;;;21077653;28;20502;-59
2021/12/30 04:43:57;;;;;;;14.07;9.18;;;;;;;;;;21060551;28;20134;-64
2021/12/30 04:53:58;;;;;;;14.98;9.77;;;;;;;;;;21077290;28;20109;-65
2021/12/30 05:04:02;;;;;;;13.55;9.38;;;;;;;;;;21077702;28;20044;-65
2021/12/30 05:14:06;;;;;;;14.80;10.27;;;;;;;;;;21076269;28;20062;-66
2021/12/30 05:24:09;;;;;;;18.05;10.43;;;;;;;;;;21075142;28;20047;-66
2021/12/30 05:34:12;;;;;;;14.38;9.70;;;;;;;;;;21088933;28;20075;-62
2021/12/30 05:44:15;;;;;;;16.13;10.23;;;;;;;;;;21090344;28;20417;-63
2021/12/30 05:54:18;;;;;;;15.02;9.48;;;;;;;;;;21088930;28;20044;-61
2021/12/30 06:04:21;;;;;;;14.73;10.70;;;;;;;;;;21088361;28;20048;-67
2021/12/30 06:14:24;;;;;;;16.85;10.63;;;;;;;;;;21089036;28;20048;-65
2021/12/30 06:24:27;;;;;;;17.58;10.48;;;;;;;;;;21088553;28;20556;-65
2021/12/30 06:34:29;;;;;;;17.02;9.45;;;;;;;;;;21086251;28;20055;-60
2021/12/30 06:44:33;;;;;;;14.10;8.70;;;;;;;;;;21084157;28;20048;-66
2021/12/30 06:54:35;;;;;;;12.75;8.77;;;;;;;;;;21085000;28;20391;-63
2021/12/30 07:04:38;;;;;;;12.20;8.73;;;;;;;;;;21084479;28;20130;-65
2021/12/30 07:14:40;;;;;;;9.85;7.47;;;;;;;;;;21082165;28;20047;-62
2021/12/30 07:24:45;;;;;;;10.05;7.10;;;;;;;;;;21081795;28;20056;-64
2021/12/30 07:34:50;;;;;;;11.00;7.43;;;;;;;;;;21081839;28;20048;-61
2021/12/30 07:44:53;;;;;;;11.05;7.10;;;;;;;;;;21080775;28;20116;-66
2021/12/30 07:54:56;;;;;;;9.90;6.60;;;;;;;;;;21062406;28;20070;-62
2021/12/30 08:05:00;;;;;;;11.10;7.07;;;;;;;;;;21079330;28;20047;-64
2021/12/30 08:15:02;;;;;;;12.30;6.70;;;;;;;;;;21078615;28;20043;-59
2021/12/30 08:25:05;;;;;;;12.70;6.30;;;;;;;;;;21080254;28;20052;-59
2021/12/30 08:35:08;;;;;;;12.63;7.30;;;;;;;;;;21078205;28;20047;-60
2021/12/30 08:45:10;;;;;;;12.05;7.22;;;;;;;;;;21059348;28;20056;-57
2021/12/30 08:55:14;;;;;;;15.95;8.45;;;;;;;;;;21076598;28;20048;-61
2021/12/30 09:05:16;;;;;;;14.80;9.00;;;;;;;;;;21085269;28;20054;-58
2021/12/30 09:15:20;;;;;;;11.90;8.30;;;;;;;;;;21091615;28;20048;-67
2021/12/30 09:25:24;;;;;;;12.45;7.13;;;;;;;;;;21091415;28;20048;-63
2021/12/30 09:35:26;;;;;;;14.82;6.75;;;;;;;;;;21090160;28;20044;-66
2021/12/30 09:45:31;;;;;;;10.20;6.80;;;;;;;;;;21090122;28;20554;-63
2021/12/30 09:55:33;;;;;;;13.18;8.40;;;;;;;;;;21089451;28;20490;-62
2021/12/30 10:05:38;;;;;;;11.65;7.07;;;;;;;;;;21088688;28;20048;-67
2021/12/30 10:15:41;;;;;;;12.18;7.68;;;;;;;;;;21087540;28;20051;-67
2021/12/30 10:25:46;;;;;;;15.77;8.43;;;;;;;;;;21085875;28;20411;-64
2021/12/30 10:35:49;;;;;;;10.10;6.80;;;;;;;;;;21084994;28;20106;-71
2021/12/30 10:46:09;;;;;;;13.52;7.65;;;;;;;;;;21083698;28;20135;-59
2021/12/30 10:56:19;;;;;;;12.65;6.55;;;;;;;;;;21083246;28;20501;-58
2021/12/30 11:06:23;;;;;;;9.85;6.40;;;;;;;;;;21082253;28;20074;-59
2021/12/30 11:16:26;;;;;;;9.18;6.30;;;;;;;;;;21079731;28;20181;-60
2021/12/30 11:26:28;;;;;;;12.82;6.63;;;;;;;;;;21077713;28;20048;-59
2021/12/30 11:36:33;;;;;;;7.78;4.40;;;;;;;;;;21078042;28;20138;-56
2021/12/30 11:46:46;;;;;;;7.13;4.97;;;;;;;;;;21078633;28;20131;-53
2021/12/30 11:57:08;;;;;;;10.88;4.75;;;;;;;;;;21084902;28;20056;-60
2021/12/30 12:07:10;;;;;;;8.55;4.93;;;;;;;;;;21074532;28;20082;-55
2021/12/30 12:17:19;;;;;;;8.32;4.47;;;;;;;;;;21073285;28;20556;-59
2021/12/30 12:27:22;;;;;;;6.90;4.10;;;;;;;;;;21074473;28;20055;-60
2021/12/30 12:37:47;;;;;;;7.43;3.33;;;;;;;;;;21078766;28;20069;-59
2021/12/30 12:48:08;;;;;;;11.00;4.65;;;;;;;;;;21080827;28;20047;-62
2021/12/30 12:58:10;;;;;;;8.77;4.88;;;;;;;;;;21092857;28;20177;-51
2021/12/30 13:08:13;;;;;;;6.70;5.68;;;;;;;;;;21088559;28;20047;-63
2021/12/30 13:18:16;;;;;;;8.88;4.65;;;;;;;;;;21092223;28;20046;-56
2021/12/30 13:28:19;;;;;;;9.35;6.45;;;;;;;;;;21091223;28;20048;-63
2021/12/30 13:38:25;;;;;;;10.02;6.30;;;;;;;;;;21091185;28;20048;-61
2021/12/30 13:48:27;;;;;;;11.40;7.53;;;;;;;;;;21090085;28;20149;-63
2021/12/30 13:58:31;;;;;;;11.18;7.93;;;;;;;;;;21090111;28;20052;-64
2021/12/30 14:08:33;;;;;;;12.05;8.02;;;;;;;;;;21089128;28;20047;-61
2021/12/30 14:18:39;;;;;;;11.40;6.90;;;;;;;;;;21088064;28;20086;-63
2021/12/30 14:28:48;;;;;;;12.38;8.07;;;;;;;;;;21086902;28;20087;-63
2021/12/30 14:38:51;;;;;;;12.20;7.32;;;;;;;;;;21085580;28;20412;-65
2021/12/30 14:49:07;;;;;;;12.38;9.40;;;;;;;;;;21085220;28;20149;-63
2021/12/30 14:59:10;;;;;;;14.13;7.72;;;;;;;;;;21084059;28;20434;-62
2021/12/30 15:09:12;;;;;;;15.38;7.38;;;;;;;;;;21082484;28;20048;-63
2021/12/30 15:19:15;;;;;;;10.27;6.70;;;;;;;;;;21082831;28;20055;-58
2021/12/30 15:29:17;;;;;;;11.43;7.07;;;;;;;;;;21082503;28;20056;-64
2021/12/30 15:39:19;;;;;;;8.98;6.28;;;;;;;;;;21082861;28;20048;-64
2021/12/30 15:49:22;;;;;;;11.85;6.72;;;;;;;;;;21080188;28;20055;-63
2021/12/30 15:59:24;;;;;;;13.77;8.25;;;;;;;;;;21079132;28;20052;-64
2021/12/30 16:09:26;;;;;;;11.68;5.57;;;;;;;;;;21078890;28;20048;-62
2021/12/30 16:19:29;;;;;;;9.30;4.85;;;;;;;;;;21077248;28;20052;-60
2021/12/30 16:29:31;;;;;;;18.10;8.32;;;;;;;;;;21076452;28;20084;-61
2021/12/30 16:39:34;;;;;;;16.05;9.50;;;;;;;;;;21076222;28;20133;-59
2021/12/30 16:49:36;;;;;;;16.10;10.23;;;;;;;;;;21076747;28;20056;-63
2021/12/30 16:59:38;;;;;;;16.67;9.40;;;;;;;;;;21076370;28;20040;-64
2021/12/30 17:09:40;;;;;;;13.93;7.22;;;;;;;;;;21076554;28;20048;-60
2021/12/30 17:19:42;;;;;;;12.55;5.78;;;;;;;;;;21076025;28;20048;-61
2021/12/30 17:29:44;;;;;;;8.68;4.45;;;;;;;;;;21087968;28;20093;-62
2021/12/30 17:39:49;;;;;;;21.30;8.90;;;;;;;;;;21090201;28;20131;-65
2021/12/30 17:49:51;;;;;;;17.97;9.30;;;;;;;;;;21090368;28;20056;-65
2021/12/30 17:59:53;;;;;;;15.23;8.85;;;;;;;;;;21089059;28;20044;-62
2021/12/30 18:09:55;;;;;;;16.85;8.77;;;;;;;;;;21087433;28;20060;-62
2021/12/30 18:19:58;;;;;;;19.70;8.93;;;;;;;;;;21087254;28;20409;-65
2021/12/30 18:30:00;;;;;;;13.50;8.13;;;;;;;;;;21087380;28;20061;-64
2021/12/30 18:40:04;;;;;;;17.55;9.38;;;;;;;;;;21087303;28;20050;-61
2021/12/30 18:50:08;;;;;;;18.80;8.80;;;;;;;;;;21084724;28;20097;-61
2021/12/30 19:00:14;;;;;;;18.80;8.05;;;;;;;;;;21084076;28;20054;-62
2021/12/30 19:10:17;;;;;;;10.32;6.82;;;;;;;;;;21084701;28;20052;-63
2021/12/30 19:20:19;;;;;;;9.20;6.63;;;;;;;;;;21082314;28;20486;-63
2021/12/30 19:30:21;;;;;;;10.55;7.38;;;;;;;;;;21081826;28;20062;-62
2021/12/30 19:40:27;;;;;;;14.07;6.30;;;;;;;;;;21081174;28;20044;-63
2021/12/30 19:50:30;;;;;;;10.48;6.07;;;;;;;;;;21079592;28;20052;-64
2021/12/30 20:00:34;;;;;;;9.75;5.30;;;;;;;;;;21079523;28;20048;-62
2021/12/30 20:10:36;;;;;;;12.02;6.60;;;;;;;;;;21079498;28;20412;-61
2021/12/30 20:20:38;;;;;;;11.98;6.35;;;;;;;;;;21079118;28;20070;-62
2021/12/30 20:30:42;;;;;;;13.25;8.00;;;;;;;;;;21078102;28;20052;-63
2021/12/30 20:40:48;;;;;;;14.00;8.77;;;;;;;;;;21077789;28;20452;-61
2021/12/30 20:50:51;;;;;;;14.15;8.77;;;;;;;;;;21077106;28;20056;-63
2021/12/30 21:00:53;;;;;;;11.20;7.38;;;;;;;;;;21083274;28;20048;-61
2021/12/30 21:10:58;;;;;;;10.38;6.13;;;;;;;;;;21093708;28;20130;-62
2021/12/30 21:21:03;;;;;;;10.00;6.57;;;;;;;;;;21092337;28;20052;-62
2021/12/30 21:31:07;;;;;;;11.48;6.90;;;;;;;;;;21091404;28;20052;-62
2021/12/30 21:41:10;;;;;;;11.90;7.32;;;;;;;;;;21090915;28;20044;-63
2021/12/30 21:51:13;;;;;;;9.25;5.50;;;;;;;;;;21092417;28;20473;-62
2021/12/30 22:01:16;;;;;;;9.80;6.10;;;;;;;;;;21089135;28;20048;-62
2021/12/30 22:11:19;;;;;;;8.52;5.57;;;;;;;;;;21088997;28;20083;-63
2021/12/30 22:21:22;;;;;;;9.90;6.85;;;;;;;;;;21088011;28;20123;-62
2021/12/30 22:31:24;;;;;;;11.52;7.47;;;;;;;;;;21087397;28;20051;-62
2021/12/30 22:41:26;;;;;;;9.77;7.45;;;;;;;;;;21087010;28;20047;-65
2021/12/30 22:51:28;;;;;;;9.10;6.47;;;;;;;;;;21085420;28;20045;-61
2021/12/30 23:01:31;;;;;;;9.63;5.90;;;;;;;;;;21084258;28;20052;-63
2021/12/30 23:11:33;;;;;;;8.30;5.32;;;;;;;;;;21084890;28;20052;-62
2021/12/30 23:21:37;;;;;;;8.73;5.63;;;;;;;;;;21081337;28;20052;-62
2021/12/30 23:31:39;;;;;;;10.25;6.57;;;;;;;;;;21082342;28;20051;-61
2021/12/30 23:41:41;;;;;;;12.32;6.93;;;;;;;;;;21081680;28;20044;-62
2021/12/30 23:51:44;;;;;;;9.98;6.25;;;;;;;;;;21080643;28;20066;-61
